Time;durP1;ratioP1;P1;durP2;ratioP2;P2;SDS_P1;SDS_P2;PMS_P1;PMS_P2;Temp;Humidity;BMP_temperature;BMP_pressure;BME280_temperature;BME280_humidity;BME280_pressure;Samples;Min_cycle;Max_cycle;Signal;HPM_P1;HPM_P2
2023/07/02 00:01:37;;;;;;;3.08;2.20;;;19.80;99.90;;;;;;5051774;28;20255;-57
2023/07/02 00:04:03;;;;;;;3.33;2.47;;;19.80;99.90;;;;;;5051885;28;20209;-56
2023/07/02 00:06:33;;;;;;;3.45;2.13;;;19.80;99.90;;;;;;5051362;28;20221;-56
2023/07/02 00:09:00;;;;;;;4.82;2.50;;;19.80;99.90;;;;;;5051655;28;20723;-56
2023/07/02 00:11:27;;;;;;;2.83;2.42;;;19.60;99.90;;;;;;5051500;28;20225;-57
2023/07/02 00:13:55;;;;;;;4.18;2.53;;;19.60;99.90;;;;;;5051603;28;20210;-56
2023/07/02 00:16:21;;;;;;;3.08;2.38;;;19.60;99.90;;;;;;5051291;28;20233;-57
2023/07/02 00:18:52;;;;;;;3.05;2.63;;;19.60;99.90;;;;;;5051622;28;20266;-58
2023/07/02 00:21:20;;;;;;;5.68;2.60;;;19.50;99.90;;;;;;5051334;28;20224;-57
2023/07/02 00:23:47;;;;;;;3.55;2.47;;;19.50;99.90;;;;;;5051472;28;20208;-57
2023/07/02 00:26:13;;;;;;;2.70;2.03;;;19.40;99.90;;;;;;5051210;28;20233;-57
2023/07/02 00:28:40;;;;;;;4.72;2.70;;;19.40;99.90;;;;;;5051757;28;20202;-56
2023/07/02 00:31:08;;;;;;;3.88;2.58;;;19.30;99.90;;;;;;5051816;28;20255;-57
2023/07/02 00:33:35;;;;;;;3.03;2.20;;;19.30;99.90;;;;;;5051410;28;20205;-57
2023/07/02 00:36:01;;;;;;;3.30;2.05;;;19.20;99.90;;;;;;5050859;28;20732;-57
2023/07/02 00:38:28;;;;;;;3.15;2.42;;;19.10;99.90;;;;;;5051221;28;20215;-56
2023/07/02 00:40:55;;;;;;;6.65;3.10;;;19.00;99.90;;;;;;5050799;28;20233;-57
2023/07/02 00:43:21;;;;;;;2.80;2.40;;;18.90;99.90;;;;;;5051403;28;20213;-57
2023/07/02 00:45:48;;;;;;;3.80;2.67;;;18.70;99.90;;;;;;5050742;28;20229;-57
2023/07/02 00:48:17;;;;;;;5.32;2.78;;;18.70;99.90;;;;;;5053853;28;20210;-57
2023/07/02 00:50:43;;;;;;;3.75;2.80;;;18.60;99.90;;;;;;5055205;28;20197;-57
2023/07/02 00:53:10;;;;;;;4.72;2.63;;;18.60;99.90;;;;;;5055451;28;20209;-57
2023/07/02 00:55:37;;;;;;;4.15;2.70;;;18.70;99.90;;;;;;5055027;28;20245;-57
2023/07/02 00:58:04;;;;;;;3.00;2.70;;;18.60;99.90;;;;;;5055074;28;20621;-57
2023/07/02 01:00:30;;;;;;;8.02;3.65;;;18.70;99.90;;;;;;5054997;28;20236;-57
2023/07/02 01:02:58;;;;;;;4.47;2.97;;;18.80;99.90;;;;;;5055045;28;20292;-57
2023/07/02 01:05:35;;;;;;;3.20;2.90;;;18.80;99.90;;;;;;5054970;28;20212;-57
2023/07/02 01:08:02;;;;;;;5.07;2.90;;;18.90;99.90;;;;;;5054764;28;20212;-56
2023/07/02 01:10:30;;;;;;;3.05;2.67;;;18.90;99.90;;;;;;5055239;28;20350;-56
2023/07/02 01:12:58;;;;;;;2.90;2.50;;;19.00;99.90;;;;;;5055158;28;20274;-56
2023/07/02 01:15:25;;;;;;;3.13;2.65;;;19.00;99.90;;;;;;5054639;28;20206;-59
2023/07/02 01:17:52;;;;;;;4.18;2.53;;;19.00;99.90;;;;;;5055258;28;20288;-56
2023/07/02 01:20:21;;;;;;;3.85;2.90;;;19.00;99.90;;;;;;5054564;28;20209;-56
2023/07/02 01:22:51;;;;;;;6.93;3.20;;;19.00;99.90;;;;;;5054927;28;20255;-55
2023/07/02 01:25:18;;;;;;;3.22;2.72;;;19.00;99.90;;;;;;5054479;28;20614;-55
2023/07/02 01:27:45;;;;;;;3.67;2.70;;;18.90;99.90;;;;;;5054348;28;20611;-55
2023/07/02 01:30:12;;;;;;;4.75;2.90;;;19.00;99.90;;;;;;5054707;28;20206;-56
2023/07/02 01:32:39;;;;;;;3.45;2.90;;;18.90;99.90;;;;;;5054576;28;20589;-55
2023/07/02 01:35:06;;;;;;;3.25;2.42;;;18.90;99.90;;;;;;5054699;28;20296;-55
2023/07/02 01:37:37;;;;;;;4.03;2.75;;;18.90;99.90;;;;;;5054190;28;20202;-55
2023/07/02 01:40:05;;;;;;;5.88;2.88;;;18.90;99.90;;;;;;5054558;28;20229;-56
2023/07/02 01:42:32;;;;;;;6.65;2.72;;;18.90;99.90;;;;;;5054400;28;20226;-56
2023/07/02 01:44:59;;;;;;;4.07;2.50;;;18.90;99.90;;;;;;5054261;28;20201;-55
2023/07/02 01:47:26;;;;;;;2.60;2.40;;;18.90;99.90;;;;;;5053993;28;20287;-55
2023/07/02 01:49:53;;;;;;;3.88;2.65;;;18.80;99.90;;;;;;5054392;28;20212;-55
2023/07/02 01:52:19;;;;;;;4.45;2.72;;;18.70;99.90;;;;;;5054138;28;20620;-55
2023/07/02 01:54:47;;;;;;;3.35;2.20;;;18.60;99.90;;;;;;5054302;28;20214;-56
2023/07/02 01:57:14;;;;;;;3.80;2.17;;;18.60;99.90;;;;;;5054640;28;20222;-56
2023/07/02 01:59:41;;;;;;;4.20;2.50;;;18.60;99.90;;;;;;5055172;28;20206;-55
2023/07/02 02:02:07;;;;;;;4.63;2.40;;;18.60;99.90;;;;;;5055569;28;20225;-55
2023/07/02 02:04:34;;;;;;;3.20;2.35;;;18.60;99.90;;;;;;5054419;28;20210;-55
2023/07/02 02:07:00;;;;;;;5.25;2.40;;;18.60;99.90;;;;;;5053815;28;20225;-56
2023/07/02 02:09:28;;;;;;;3.38;2.60;;;18.60;99.90;;;;;;5053965;28;20205;-54
2023/07/02 02:11:56;;;;;;;5.32;2.33;;;18.60;99.90;;;;;;5053912;28;20207;-55
2023/07/02 02:14:22;;;;;;;5.05;2.50;;;18.60;99.90;;;;;;5053873;28;20267;-55
2023/07/02 02:16:49;;;;;;;4.65;2.63;;;18.60;99.90;;;;;;5053350;28;20233;-56
2023/07/02 02:19:16;;;;;;;4.20;2.50;;;18.60;99.90;;;;;;5053863;28;20210;-55
2023/07/02 02:21:43;;;;;;;3.83;2.42;;;18.70;99.90;;;;;;5053719;28;20229;-55
2023/07/02 02:24:10;;;;;;;7.07;2.53;;;18.70;99.90;;;;;;5053541;28;20205;-56
2023/07/02 02:26:37;;;;;;;4.25;2.42;;;18.70;99.90;;;;;;5053277;28;20225;-56
2023/07/02 02:29:05;;;;;;;3.78;2.40;;;18.70;99.90;;;;;;5053436;28;20615;-56
2023/07/02 02:31:32;;;;;;;5.55;2.40;;;18.70;99.90;;;;;;5053778;28;20213;-55
2023/07/02 02:33:58;;;;;;;3.85;2.40;;;18.60;99.90;;;;;;5053576;28;20206;-56
2023/07/02 02:36:25;;;;;;;3.63;2.40;;;18.70;99.90;;;;;;5053300;28;20229;-56
2023/07/02 02:38:52;;;;;;;2.72;2.20;;;18.70;99.90;;;;;;5053623;28;20209;-55
2023/07/02 02:41:19;;;;;;;3.30;2.40;;;18.70;99.90;;;;;;5053398;28;20229;-56
2023/07/02 02:43:45;;;;;;;3.58;2.20;;;18.70;99.90;;;;;;5053084;28;20205;-56
2023/07/02 02:46:20;;;;;;;4.22;1.98;;;18.80;99.90;;;;;;5053210;28;20264;-55
2023/07/02 02:48:46;;;;;;;3.38;1.98;;;18.80;99.90;;;;;;5053348;28;20205;-56
2023/07/02 02:51:13;;;;;;;4.05;2.03;;;18.80;99.90;;;;;;5053163;28;20673;-55
2023/07/02 02:53:40;;;;;;;5.88;2.42;;;18.90;99.90;;;;;;5053039;28;20308;-57
2023/07/02 02:56:07;;;;;;;3.97;2.40;;;19.00;99.90;;;;;;5052705;28;20233;-56
2023/07/02 02:58:33;;;;;;;3.25;2.45;;;19.00;99.90;;;;;;5053130;28;20669;-56
2023/07/02 03:01:00;;;;;;;6.53;2.40;;;19.00;99.90;;;;;;5053216;28;20206;-55
2023/07/02 03:03:28;;;;;;;3.88;2.38;;;19.00;99.90;;;;;;5053065;28;20209;-55
2023/07/02 03:05:55;;;;;;;3.30;2.20;;;19.00;99.90;;;;;;5052766;28;20228;-55
2023/07/02 03:08:22;;;;;;;4.55;2.60;;;19.00;99.90;;;;;;5052768;28;20289;-55
2023/07/02 03:10:48;;;;;;;5.68;2.20;;;19.10;99.90;;;;;;5051969;28;20582;-56
2023/07/02 03:13:15;;;;;;;4.45;2.67;;;19.10;99.90;;;;;;5053177;28;20197;-55
2023/07/02 03:15:42;;;;;;;3.95;2.28;;;19.10;99.90;;;;;;5052326;28;20744;-54
2023/07/02 03:18:09;;;;;;;3.78;2.10;;;19.10;99.90;;;;;;5052758;28;20206;-55
2023/07/02 03:20:37;;;;;;;4.88;2.30;;;19.10;99.90;;;;;;5052620;28;20201;-55
2023/07/02 03:23:04;;;;;;;5.72;2.30;;;19.20;99.90;;;;;;5052421;28;20222;-55
2023/07/02 03:25:30;;;;;;;3.97;2.53;;;19.20;99.90;;;;;;5052217;28;20233;-55
2023/07/02 03:27:57;;;;;;;5.15;2.67;;;19.20;99.90;;;;;;5052392;28;20282;-54
2023/07/02 03:30:24;;;;;;;5.93;2.70;;;19.20;99.90;;;;;;5052467;28;20271;-54
2023/07/02 03:32:50;;;;;;;6.38;2.55;;;19.20;99.90;;;;;;5052236;28;20209;-54
2023/07/02 03:35:17;;;;;;;4.43;2.60;;;19.10;99.90;;;;;;5052088;28;20213;-55
2023/07/02 03:37:46;;;;;;;4.03;2.65;;;19.10;99.90;;;;;;5051847;28;20274;-54
2023/07/02 03:40:13;;;;;;;5.10;2.88;;;18.90;99.90;;;;;;5052218;28;20678;-55
2023/07/02 03:42:39;;;;;;;5.90;3.35;;;18.70;99.90;;;;;;5052155;28;20279;-55
2023/07/02 03:45:07;;;;;;;5.97;3.33;;;18.60;99.90;;;;;;5052154;28;20220;-55
2023/07/02 03:47:33;;;;;;;7.57;3.38;;;18.50;99.90;;;;;;5051741;28;20259;-55
2023/07/02 03:50:00;;;;;;;7.28;3.40;;;18.50;99.90;;;;;;5052176;28;20209;-54
2023/07/02 03:52:27;;;;;;;5.43;3.42;;;18.50;99.90;;;;;;5051909;28;20262;-57
2023/07/02 03:54:55;;;;;;;6.50;3.10;;;18.60;99.90;;;;;;5051977;28;20197;-55
2023/07/02 03:57:22;;;;;;;8.60;4.80;;;18.70;99.90;;;;;;5052199;28;20229;-54
2023/07/02 03:59:48;;;;;;;8.00;3.53;;;18.70;99.90;;;;;;5052126;28;20216;-54
2023/07/02 04:02:15;;;;;;;8.25;3.80;;;18.70;99.90;;;;;;5052456;28;20226;-54
2023/07/02 04:04:42;;;;;;;9.68;3.80;;;18.70;99.90;;;;;;5051912;28;20212;-56
2023/07/02 04:07:08;;;;;;;6.25;3.88;;;18.70;99.90;;;;;;5051204;28;20639;-55
2023/07/02 04:09:35;;;;;;;7.63;3.60;;;18.70;99.90;;;;;;5051876;28;20350;-54
2023/07/02 04:12:03;;;;;;;9.02;3.88;;;18.70;99.90;;;;;;5051901;28;20619;-54
2023/07/02 04:14:30;;;;;;;8.38;3.92;;;18.60;99.90;;;;;;5051647;28;20251;-54
2023/07/02 04:16:57;;;;;;;7.03;3.97;;;18.60;99.90;;;;;;5051210;28;20287;-54
2023/07/02 04:19:23;;;;;;;8.48;4.18;;;18.60;99.90;;;;;;5051385;28;20237;-55
2023/07/02 04:21:50;;;;;;;7.47;4.25;;;18.60;99.90;;;;;;5051256;28;20252;-54
2023/07/02 04:24:17;;;;;;;7.20;4.07;;;18.70;99.90;;;;;;5051661;28;20209;-54
2023/07/02 04:26:44;;;;;;;8.32;4.57;;;18.70;99.90;;;;;;5051209;28;20229;-55
2023/07/02 04:29:12;;;;;;;8.20;5.07;;;18.70;99.90;;;;;;5051329;28;20252;-55
2023/07/02 04:31:39;;;;;;;9.00;4.80;;;18.80;99.90;;;;;;5051346;28;20231;-54
2023/07/02 04:34:06;;;;;;;8.40;4.93;;;18.70;99.90;;;;;;5051226;28;20205;-54
2023/07/02 04:36:33;;;;;;;11.75;6.60;;;18.70;99.90;;;;;;5051130;28;20695;-54
2023/07/02 04:38:59;;;;;;;7.68;4.93;;;18.70;99.90;;;;;;5051388;28;20620;-54
2023/07/02 04:41:29;;;;;;;7.72;5.05;;;18.70;99.90;;;;;;5051170;28;20209;-55
2023/07/02 04:43:56;;;;;;;10.13;5.55;;;18.80;99.90;;;;;;5051075;28;20212;-55
2023/07/02 04:46:24;;;;;;;9.68;5.28;;;18.70;99.90;;;;;;5050900;28;20292;-55
2023/07/02 04:48:51;;;;;;;8.02;4.75;;;18.70;99.90;;;;;;5051116;28;20211;-56
2023/07/02 04:51:17;;;;;;;9.65;5.85;;;18.80;99.90;;;;;;5051143;28;20657;-57
2023/07/02 04:53:44;;;;;;;8.00;5.10;;;18.80;99.90;;;;;;5051206;28;20611;-56
2023/07/02 04:56:11;;;;;;;7.38;5.50;;;18.80;99.90;;;;;;5050754;28;20226;-56
2023/07/02 04:58:37;;;;;;;8.65;5.15;;;18.80;99.90;;;;;;5051075;28;20214;-56
2023/07/02 05:01:04;;;;;;;10.88;5.70;;;19.10;99.90;;;;;;5050985;28;20212;-55
2023/07/02 05:03:32;;;;;;;8.32;5.07;;;19.90;99.90;;;;;;5050867;28;20672;-55
2023/07/02 05:05:59;;;;;;;6.82;4.65;;;20.40;99.90;;;;;;5050756;28;20225;-55
2023/07/02 05:08:26;;;;;;;8.45;4.72;;;20.40;99.90;;;;;;5051050;28;20206;-55
2023/07/02 05:10:52;;;;;;;7.30;5.20;;;20.40;99.90;;;;;;5050923;28;20218;-54
2023/07/02 05:13:19;;;;;;;15.15;4.40;;;20.40;99.90;;;;;;5051010;28;20247;-55
2023/07/02 05:15:46;;;;;;;8.63;4.05;;;20.50;99.90;;;;;;5050255;28;20241;-55
2023/07/02 05:18:13;;;;;;;8.93;4.45;;;20.50;99.90;;;;;;5050030;28;20208;-54
2023/07/02 05:20:41;;;;;;;7.78;3.88;;;20.60;99.90;;;;;;5050364;28;20206;-54
2023/07/02 05:23:08;;;;;;;9.90;4.35;;;21.80;99.90;;;;;;5049959;28;20233;-54
2023/07/02 05:25:35;;;;;;;7.53;3.75;;;22.80;99.90;;;;;;5049787;28;20283;-55
2023/07/02 05:28:01;;;;;;;6.82;3.80;;;22.80;99.90;;;;;;5049678;28;20584;-55
2023/07/02 05:30:28;;;;;;;7.88;2.90;;;22.80;99.90;;;;;;5049644;28;20214;-55
2023/07/02 05:32:55;;;;;;;4.40;3.22;;;23.60;99.90;;;;;;5050060;28;20208;-55
2023/07/02 05:35:21;;;;;;;4.32;2.88;;;24.30;99.90;;;;;;5053127;28;20209;-56
2023/07/02 05:37:49;;;;;;;6.90;3.42;;;25.00;99.90;;;;;;5052953;28;20641;-55
2023/07/02 05:40:16;;;;;;;5.85;3.30;;;25.30;99.90;;;;;;5053091;28;20209;-55
2023/07/02 05:42:43;;;;;;;5.63;2.83;;;25.20;99.90;;;;;;5052958;28;20221;-55
2023/07/02 05:45:11;;;;;;;4.72;2.80;;;24.90;99.90;;;;;;5052878;28;20664;-55
2023/07/02 05:47:38;;;;;;;6.32;2.80;;;24.60;99.90;;;;;;5052893;28;20631;-55
2023/07/02 05:50:05;;;;;;;4.40;3.15;;;24.40;99.90;;;;;;5052815;28;20666;-54
2023/07/02 05:52:32;;;;;;;5.22;2.72;;;24.40;99.90;;;;;;5052910;28;20210;-55
2023/07/02 05:55:00;;;;;;;2.97;2.60;;;24.30;99.90;;;;;;5052890;28;20212;-55
2023/07/02 05:57:27;;;;;;;5.22;3.17;;;25.30;99.90;;;;;;5052567;28;20234;-54
2023/07/02 05:59:53;;;;;;;4.85;2.70;;;27.10;99.90;;;;;;5053093;28;20563;-54
2023/07/02 06:02:20;;;;;;;5.63;3.75;;;28.90;99.90;;;;;;5052781;28;20721;-55
2023/07/02 06:04:47;;;;;;;4.53;2.83;;;30.30;99.40;;;;;;5052813;28;20205;-52
2023/07/02 06:07:14;;;;;;;5.38;3.50;;;31.60;94.70;;;;;;5052402;28;20598;-53
2023/07/02 06:09:40;;;;;;;5.63;3.30;;;32.50;91.20;;;;;;5052778;28;20210;-55
2023/07/02 06:12:09;;;;;;;6.10;3.45;;;33.40;86.00;;;;;;5052644;28;20210;-54
2023/07/02 06:14:36;;;;;;;5.53;3.30;;;34.40;81.80;;;;;;5052586;28;20236;-54
2023/07/02 06:17:05;;;;;;;6.43;4.00;;;35.10;75.50;;;;;;5017100;28;1034555;-55
2023/07/02 06:19:32;;;;;;;6.30;3.85;;;35.80;71.00;;;;;;5053759;28;20213;-53
2023/07/02 06:21:58;;;;;;;8.05;4.13;;;36.70;67.00;;;;;;5053573;28;20693;-53
2023/07/02 06:24:25;;;;;;;5.00;3.83;;;37.10;61.60;;;;;;5053481;28;20541;-54
2023/07/02 06:26:52;;;;;;;6.68;4.25;;;37.40;61.50;;;;;;5053463;28;20316;-54
2023/07/02 06:29:20;;;;;;;8.68;4.43;;;37.70;59.10;;;;;;5053382;28;20635;-54
2023/07/02 06:31:47;;;;;;;7.25;4.50;;;38.20;57.30;;;;;;5053660;28;20206;-56
2023/07/02 06:34:14;;;;;;;5.88;3.72;;;38.40;56.20;;;;;;5053703;28;20309;-53
2023/07/02 06:36:41;;;;;;;7.13;4.30;;;38.20;55.20;;;;;;5053021;28;20225;-53
2023/07/02 06:39:09;;;;;;;9.63;4.80;;;38.40;55.30;;;;;;5053281;28;20214;-52
2023/07/02 06:41:35;;;;;;;9.18;4.22;;;38.60;53.20;;;;;;5053389;28;20760;-51
2023/07/02 06:44:02;;;;;;;7.88;4.63;;;37.70;54.40;;;;;;5053164;28;20252;-51
2023/07/02 06:46:30;;;;;;;7.38;4.50;;;36.90;55.50;;;;;;5052162;28;20229;-52
2023/07/02 06:48:57;;;;;;;11.15;4.90;;;36.30;55.90;;;;;;5053033;28;20673;-51
2023/07/02 06:51:26;;;;;;;6.82;4.88;;;35.70;56.40;;;;;;5053029;28;20206;-51
2023/07/02 06:53:52;;;;;;;10.20;4.90;;;34.70;58.20;;;;;;5052932;28;20685;-51
2023/07/02 06:56:19;;;;;;;9.73;4.97;;;33.50;60.20;;;;;;5053005;28;20602;-51
2023/07/02 06:58:46;;;;;;;8.20;5.18;;;32.50;63.10;;;;;;5052857;28;20201;-59
2023/07/02 07:01:12;;;;;;;7.47;4.95;;;32.50;62.30;;;;;;5032324;28;20217;-58
2023/07/02 07:03:40;;;;;;;7.32;4.75;;;33.20;61.60;;;;;;5032661;28;20497;-57
2023/07/02 07:06:07;;;;;;;9.43;5.72;;;33.60;61.80;;;;;;5032501;28;20237;-53
2023/07/02 07:08:37;;;;;;;8.90;5.13;;;33.20;61.00;;;;;;5032856;28;20268;-53
2023/07/02 07:11:04;;;;;;;8.23;5.53;;;32.30;62.00;;;;;;5033106;28;20206;-53
2023/07/02 07:13:31;;;;;;;8.00;5.60;;;32.10;63.60;;;;;;5032789;28;20209;-56
2023/07/02 07:15:57;;;;;;;11.02;5.88;;;32.50;62.70;;;;;;5032993;28;20248;-55
2023/07/02 07:18:24;;;;;;;11.63;6.28;;;32.90;61.80;;;;;;5032646;28;20720;-55
2023/07/02 07:20:53;;;;;;;13.73;9.40;;;33.70;59.00;;;;;;5032558;28;20327;-55
2023/07/02 07:23:19;;;;;;;7.97;4.97;;;34.70;57.00;;;;;;5032717;28;20316;-56
2023/07/02 07:25:46;;;;;;;8.30;5.72;;;35.80;55.30;;;;;;5032106;28;20222;-53
2023/07/02 07:28:15;;;;;;;7.57;5.50;;;36.50;53.70;;;;;;5032522;28;20202;-53
2023/07/02 07:30:42;;;;;;;8.52;5.30;;;36.50;54.00;;;;;;5032672;28;20264;-54
2023/07/02 07:33:09;;;;;;;8.68;5.70;;;36.00;53.70;;;;;;5032407;28;20256;-53
2023/07/02 07:35:35;;;;;;;6.95;5.57;;;34.60;55.30;;;;;;5032655;28;20238;-54
2023/07/02 07:38:03;;;;;;;9.38;5.82;;;33.50;56.60;;;;;;5032357;28;20276;-55
2023/07/02 07:40:30;;;;;;;8.98;5.93;;;32.80;58.40;;;;;;5032511;28;20221;-54
2023/07/02 07:42:57;;;;;;;9.88;5.80;;;32.10;60.00;;;;;;5032177;28;20550;-56
2023/07/02 07:45:24;;;;;;;13.88;7.00;;;31.60;60.60;;;;;;5032043;28;20648;-55
2023/07/02 07:47:51;;;;;;;12.73;6.75;;;31.60;59.80;;;;;;5031714;28;20288;-57
2023/07/02 07:50:18;;;;;;;16.60;8.10;;;31.00;60.50;;;;;;5032290;28;20293;-56
2023/07/02 07:52:44;;;;;;;15.55;8.85;;;30.80;61.40;;;;;;5032247;28;20402;-59
2023/07/02 07:55:13;;;;;;;9.77;6.53;;;30.90;61.70;;;;;;5031674;28;20675;-55
2023/07/02 07:57:40;;;;;;;9.75;7.03;;;31.10;61.20;;;;;;5031507;28;20206;-61
2023/07/02 08:00:08;;;;;;;10.20;7.20;;;31.70;59.70;;;;;;5032030;28;20206;-61
2023/07/02 08:02:35;;;;;;;13.88;8.00;;;31.90;59.00;;;;;;5031796;28;20209;-58
2023/07/02 08:05:02;;;;;;;14.65;8.25;;;32.10;58.80;;;;;;5032048;28;20206;-59
2023/07/02 08:07:29;;;;;;;21.42;10.10;;;32.60;58.00;;;;;;5031503;28;20229;-59
2023/07/02 08:09:56;;;;;;;26.00;10.82;;;32.40;57.70;;;;;;5032002;28;20279;-59
2023/07/02 08:12:24;;;;;;;16.08;9.25;;;32.10;57.90;;;;;;5031719;28;20689;-57
2023/07/02 08:14:51;;;;;;;13.65;9.05;;;31.70;57.70;;;;;;5031665;28;20209;-58
2023/07/02 08:17:17;;;;;;;14.73;9.20;;;30.80;58.60;;;;;;5031571;28;20229;-57
2023/07/02 08:19:44;;;;;;;15.05;9.55;;;30.20;58.70;;;;;;5031844;28;20202;-58
2023/07/02 08:22:11;;;;;;;14.07;9.35;;;29.70;60.20;;;;;;5031835;28;20217;-58
2023/07/02 08:24:37;;;;;;;13.50;9.13;;;29.40;61.00;;;;;;5031576;28;20230;-56
2023/07/02 08:27:05;;;;;;;16.10;9.13;;;29.30;62.30;;;;;;5031414;28;20313;-58
2023/07/02 08:29:33;;;;;;;13.02;8.60;;;30.10;61.10;;;;;;5031538;28;20210;-57
2023/07/02 08:32:00;;;;;;;12.90;7.97;;;30.70;58.90;;;;;;5031644;28;20297;-58
2023/07/02 08:34:27;;;;;;;16.45;9.07;;;31.40;58.00;;;;;;5031591;28;20626;-58
2023/07/02 08:36:53;;;;;;;14.27;9.13;;;31.20;58.00;;;;;;5031289;28;20334;-58
2023/07/02 08:39:20;;;;;;;14.25;9.07;;;31.30;58.30;;;;;;5031589;28;20530;-58
2023/07/02 08:41:48;;;;;;;14.30;9.90;;;31.40;58.10;;;;;;5031685;28;20673;-58
2023/07/02 08:44:15;;;;;;;15.25;8.75;;;31.20;59.00;;;;;;5031449;28;20218;-58
2023/07/02 08:46:43;;;;;;;15.18;9.75;;;31.30;58.60;;;;;;5031042;28;20745;-57
2023/07/02 08:49:10;;;;;;;16.92;9.75;;;31.20;58.00;;;;;;5031772;28;20206;-57
2023/07/02 08:51:37;;;;;;;16.20;9.55;;;30.70;59.20;;;;;;5031549;28;20202;-59
2023/07/02 08:54:04;;;;;;;16.90;9.98;;;30.40;59.70;;;;;;5031324;28;20615;-57
2023/07/02 08:56:31;;;;;;;14.77;9.25;;;30.20;59.50;;;;;;5031075;28;20233;-58
2023/07/02 08:58:58;;;;;;;14.80;9.65;;;29.70;60.10;;;;;;5031556;28;20210;-58
2023/07/02 09:01:25;;;;;;;16.77;9.77;;;29.40;61.50;;;;;;5031403;28;20218;-58
2023/07/02 09:03:53;;;;;;;16.05;9.60;;;29.30;61.60;;;;;;5031313;28;20252;-58
2023/07/02 09:06:20;;;;;;;15.80;10.00;;;28.90;62.10;;;;;;5031242;28;20644;-59
2023/07/02 09:08:46;;;;;;;14.63;9.55;;;28.50;63.20;;;;;;5033118;28;20210;-58
2023/07/02 09:11:14;;;;;;;13.15;9.30;;;28.10;64.30;;;;;;5035409;28;20213;-58
2023/07/02 09:13:49;;;;;;;13.38;9.23;;;27.70;64.70;;;;;;5035574;28;20221;-59
2023/07/02 09:16:26;;;;;;;17.73;9.27;;;27.20;65.00;;;;;;5034902;28;20229;-59
2023/07/02 09:18:58;;;;;;;14.68;9.20;;;26.80;66.10;;;;;;5035344;28;20264;-58
2023/07/02 09:21:28;;;;;;;16.70;8.82;;;26.60;67.20;;;;;;5035182;28;20620;-58
2023/07/02 09:23:55;;;;;;;15.45;9.20;;;26.40;66.80;;;;;;5035265;28;20725;-58
2023/07/02 09:26:22;;;;;;;17.52;9.35;;;26.30;66.60;;;;;;5035177;28;20229;-58
2023/07/02 09:28:48;;;;;;;13.82;9.07;;;25.90;68.10;;;;;;5035623;28;20229;-58
2023/07/02 09:31:15;;;;;;;14.90;8.55;;;25.70;68.50;;;;;;5035627;28;20206;-59
2023/07/02 09:33:43;;;;;;;12.60;8.77;;;25.70;69.10;;;;;;5035333;28;20716;-57
2023/07/02 09:36:12;;;;;;;14.50;8.82;;;25.60;69.20;;;;;;5034758;28;20230;-57
2023/07/02 09:38:40;;;;;;;16.90;8.98;;;25.60;69.30;;;;;;5035498;28;20573;-58
2023/07/02 09:41:08;;;;;;;14.20;9.32;;;25.40;68.90;;;;;;5034971;28;20271;-58
2023/07/02 09:43:35;;;;;;;16.98;9.73;;;25.20;69.40;;;;;;5034779;28;20229;-58
2023/07/02 09:46:02;;;;;;;17.23;9.48;;;25.10;71.80;;;;;;5034339;28;20241;-59
2023/07/02 09:48:33;;;;;;;15.52;9.38;;;25.20;70.50;;;;;;5034690;28;20211;-59
2023/07/02 09:51:00;;;;;;;13.85;9.57;;;25.30;71.20;;;;;;5034960;28;20195;-59
2023/07/02 09:53:29;;;;;;;13.10;9.38;;;25.40;70.70;;;;;;5034547;28;20206;-59
2023/07/02 09:55:57;;;;;;;14.98;8.88;;;25.50;70.60;;;;;;5034323;28;20317;-61
2023/07/02 09:58:23;;;;;;;15.65;9.60;;;25.50;69.30;;;;;;5034257;28;20618;-58
2023/07/02 10:00:50;;;;;;;14.65;9.52;;;25.60;69.10;;;;;;5034416;28;20217;-58
2023/07/02 10:03:17;;;;;;;16.63;10.82;;;25.80;70.00;;;;;;5034225;28;20351;-58
2023/07/02 10:05:44;;;;;;;14.70;9.80;;;25.80;70.40;;;;;;5034276;28;20234;-60
2023/07/02 10:08:16;;;;;;;17.40;10.75;;;25.70;70.70;;;;;;5034546;28;20206;-58
2023/07/02 10:10:44;;;;;;;15.98;10.07;;;25.30;69.60;;;;;;5034407;28;20206;-59
2023/07/02 10:13:11;;;;;;;17.98;11.15;;;24.90;71.90;;;;;;5034350;28;20210;-59
2023/07/02 10:15:39;;;;;;;16.75;10.90;;;24.90;72.60;;;;;;5033840;28;20241;-58
2023/07/02 10:18:07;;;;;;;13.85;10.60;;;24.80;72.60;;;;;;5033758;28;20692;-57
2023/07/02 10:20:35;;;;;;;17.27;10.27;;;24.90;73.80;;;;;;5033994;28;20214;-58
2023/07/02 10:23:02;;;;;;;18.13;10.93;;;25.10;72.30;;;;;;5034153;28;20217;-60
2023/07/02 10:25:31;;;;;;;18.02;10.25;;;25.20;71.90;;;;;;5034044;28;20284;-59
2023/07/02 10:28:00;;;;;;;16.90;10.75;;;25.20;71.40;;;;;;5033719;28;20217;-58
2023/07/02 10:30:34;;;;;;;16.70;10.15;;;25.10;70.70;;;;;;5033680;28;20640;-57
2023/07/02 10:33:11;;;;;;;15.20;10.60;;;25.10;71.60;;;;;;5033823;28;20209;-59
2023/07/02 10:35:38;;;;;;;16.92;9.43;;;25.20;71.30;;;;;;5034064;28;20222;-57
2023/07/02 10:38:07;;;;;;;16.08;10.85;;;25.20;70.80;;;;;;5033741;28;20202;-58
2023/07/02 10:40:34;;;;;;;17.50;11.40;;;25.30;71.70;;;;;;5033567;28;20202;-58
2023/07/02 10:43:02;;;;;;;15.98;10.93;;;25.40;71.70;;;;;;5033375;28;20224;-60
2023/07/02 10:45:33;;;;;;;14.20;10.00;;;25.60;71.90;;;;;;5033190;28;20726;-58
2023/07/02 10:48:02;;;;;;;16.25;10.60;;;25.90;70.90;;;;;;5033491;28;20233;-58
2023/07/02 10:50:28;;;;;;;16.50;9.98;;;26.10;69.60;;;;;;5033911;28;20260;-59
2023/07/02 10:52:55;;;;;;;15.90;10.13;;;26.30;69.50;;;;;;5033754;28;20280;-59
2023/07/02 10:55:23;;;;;;;18.30;10.23;;;26.50;68.20;;;;;;5033587;28;20198;-58
2023/07/02 10:57:50;;;;;;;13.82;9.57;;;26.70;67.40;;;;;;5033705;28;20210;-58
2023/07/02 11:00:19;;;;;;;13.98;8.82;;;27.00;67.90;;;;;;5034115;28;20241;-59
2023/07/02 11:02:46;;;;;;;17.70;11.48;;;27.30;67.20;;;;;;5033925;28;20210;-61
2023/07/02 11:05:14;;;;;;;17.63;11.05;;;27.30;66.40;;;;;;5033478;28;20238;-57
2023/07/02 11:07:41;;;;;;;16.38;11.02;;;27.30;66.30;;;;;;5033781;28;20241;-61
2023/07/02 11:10:09;;;;;;;15.43;10.40;;;27.40;66.50;;;;;;5033471;28;20253;-59
2023/07/02 11:12:37;;;;;;;16.40;10.25;;;27.50;66.50;;;;;;5033890;28;20229;-59
2023/07/02 11:15:11;;;;;;;15.85;9.98;;;27.40;65.30;;;;;;5033530;28;20274;-59
2023/07/02 11:17:40;;;;;;;14.68;10.50;;;27.20;65.50;;;;;;5033425;28;20206;-60
2023/07/02 11:20:08;;;;;;;15.98;10.20;;;27.20;66.50;;;;;;5033172;28;20678;-59
2023/07/02 11:22:35;;;;;;;14.43;9.75;;;27.30;66.60;;;;;;5033299;28;20212;-59
2023/07/02 11:25:13;;;;;;;13.75;9.80;;;27.40;65.20;;;;;;5033043;28;20225;-58
2023/07/02 11:27:40;;;;;;;13.85;9.82;;;27.50;65.20;;;;;;5032710;28;20205;-60
2023/07/02 11:30:08;;;;;;;12.35;9.02;;;27.60;65.30;;;;;;5033074;28;20605;-59
2023/07/02 11:32:49;;;;;;;14.98;9.55;;;27.70;65.20;;;;;;5032504;28;20203;-59
2023/07/02 11:35:16;;;;;;;14.43;9.80;;;27.70;64.70;;;;;;5033126;28;20296;-58
2023/07/02 11:37:44;;;;;;;18.00;9.07;;;27.70;65.20;;;;;;5032929;28;20227;-59
2023/07/02 11:40:12;;;;;;;13.55;9.63;;;27.80;64.40;;;;;;5032902;28;20210;-58
2023/07/02 11:42:39;;;;;;;16.42;10.80;;;28.10;63.20;;;;;;5032659;28;20208;-59
2023/07/02 11:45:07;;;;;;;15.02;10.57;;;28.30;64.20;;;;;;5032356;28;20760;-59
2023/07/02 11:47:33;;;;;;;17.50;10.23;;;28.20;64.40;;;;;;5032136;28;20226;-58
2023/07/02 11:50:01;;;;;;;16.13;10.50;;;28.10;65.00;;;;;;5032745;28;20801;-60
2023/07/02 11:52:28;;;;;;;15.77;9.85;;;27.70;64.40;;;;;;5032473;28;20206;-57
2023/07/02 11:54:55;;;;;;;14.02;10.85;;;27.30;65.40;;;;;;5032145;28;20718;-57
2023/07/02 11:57:22;;;;;;;15.38;10.55;;;27.10;65.70;;;;;;5031803;28;20545;-59
2023/07/02 11:59:50;;;;;;;15.65;10.40;;;27.10;66.40;;;;;;5032185;28;20209;-60
2023/07/02 12:02:17;;;;;;;13.75;10.00;;;27.20;65.00;;;;;;5032510;28;20248;-56
2023/07/02 12:04:43;;;;;;;15.20;10.15;;;27.00;66.30;;;;;;5032270;28;20230;-58
2023/07/02 12:07:13;;;;;;;15.18;10.35;;;27.20;67.00;;;;;;5031987;28;20229;-59
2023/07/02 12:09:40;;;;;;;14.77;10.40;;;27.40;67.10;;;;;;5032236;28;20697;-60
2023/07/02 12:12:08;;;;;;;14.95;10.18;;;27.60;65.40;;;;;;5031896;28;20630;-58
2023/07/02 12:14:35;;;;;;;15.55;9.80;;;27.40;65.20;;;;;;5031901;28;20460;-60
2023/07/02 12:17:01;;;;;;;16.30;10.27;;;27.10;66.00;;;;;;5031412;28;20237;-59
2023/07/02 12:19:28;;;;;;;16.20;10.15;;;26.80;66.00;;;;;;5032202;28;20210;-61
2023/07/02 12:21:55;;;;;;;15.45;10.63;;;26.80;67.10;;;;;;5032160;28;20214;-60
2023/07/02 12:24:23;;;;;;;14.50;9.77;;;26.90;66.10;;;;;;5032237;28;20237;-58
2023/07/02 12:26:49;;;;;;;15.85;10.38;;;27.00;64.90;;;;;;5032622;28;20227;-63
2023/07/02 12:29:16;;;;;;;16.60;9.68;;;27.30;64.70;;;;;;5033995;28;20202;-61
2023/07/02 12:31:43;;;;;;;12.88;9.43;;;27.90;64.80;;;;;;5033617;28;20214;-59
2023/07/02 12:34:10;;;;;;;13.50;9.57;;;28.50;61.60;;;;;;5033998;28;20232;-59
2023/07/02 12:36:37;;;;;;;15.90;9.82;;;28.80;64.00;;;;;;5032717;28;20313;-61
2023/07/02 12:39:04;;;;;;;14.27;10.18;;;28.70;61.50;;;;;;5031902;28;20249;-56
2023/07/02 12:41:32;;;;;;;14.18;9.70;;;28.50;62.00;;;;;;5031523;28;20290;-56